sensor_id;sensor_type;location;lat;lon;timestamp;pressure;altitude;pressure_sealevel;temperature;humidity
53659;BME280;41524;35.624;139.698;2023-02-14T00:00:16;100850.00;;;3.21;36.78
53659;BME280;41524;35.624;139.698;2023-02-14T00:05:16;100844.00;;;3.14;36.34
53659;BME280;41524;35.624;139.698;2023-02-14T00:10:11;100853.00;;;3.61;37.89
53659;BME280;41524;35.624;139.698;2023-02-14T00:15:11;100854.00;;;3.77;36.40
53659;BME280;41524;35.624;139.698;2023-02-14T00:20:16;100846.00;;;3.44;36.42
53659;BME280;41524;35.624;139.698;2023-02-14T00:25:15;100859.00;;;3.57;35.39
53659;BME280;41524;35.624;139.698;2023-02-14T00:30:16;100858.00;;;4.13;35.12
53659;BME280;41524;35.624;139.698;2023-02-14T00:35:11;100860.00;;;4.17;37.52
53659;BME280;41524;35.624;139.698;2023-02-14T00:40:12;100853.00;;;4.87;33.97
53659;BME280;41524;35.624;139.698;2023-02-14T00:45:16;100859.00;;;4.11;33.25
53659;BME280;41524;35.624;139.698;2023-02-14T00:50:21;100851.00;;;3.81;34.08
53659;BME280;41524;35.624;139.698;2023-02-14T00:55:11;100841.00;;;4.27;35.93
53659;BME280;41524;35.624;139.698;2023-02-14T01:00:18;100839.00;;;4.49;35.40
53659;BME280;41524;35.624;139.698;2023-02-14T01:05:11;100856.00;;;4.69;35.33
53659;BME280;41524;35.624;139.698;2023-02-14T01:10:12;100845.00;;;4.13;32.21
53659;BME280;41524;35.624;139.698;2023-02-14T01:15:11;100844.00;;;3.94;32.14
53659;BME280;41524;35.624;139.698;2023-02-14T01:20:11;100841.00;;;4.26;31.51
53659;BME280;41524;35.624;139.698;2023-02-14T01:25:14;100857.00;;;4.67;31.44
53659;BME280;41524;35.624;139.698;2023-02-14T01:30:14;100851.00;;;4.83;31.22
53659;BME280;41524;35.624;139.698;2023-02-14T01:35:16;100847.00;;;5.36;31.97
53659;BME280;41524;35.624;139.698;2023-02-14T01:40:13;100849.00;;;4.60;31.08
53659;BME280;41524;35.624;139.698;2023-02-14T01:45:17;100846.00;;;4.73;31.72
53659;BME280;41524;35.624;139.698;2023-02-14T01:50:15;100839.00;;;4.73;31.29
53659;BME280;41524;35.624;139.698;2023-02-14T01:55:16;100833.00;;;5.35;30.58
53659;BME280;41524;35.624;139.698;2023-02-14T02:00:12;100818.00;;;5.61;30.24
53659;BME280;41524;35.624;139.698;2023-02-14T02:05:21;100818.00;;;5.62;30.56
53659;BME280;41524;35.624;139.698;2023-02-14T02:10:12;100809.00;;;6.52;29.54
53659;BME280;41524;35.624;139.698;2023-02-14T02:15:11;100808.00;;;6.07;30.82
53659;BME280;41524;35.624;139.698;2023-02-14T02:25:25;100786.00;;;7.26;28.08
53659;BME280;41524;35.624;139.698;2023-02-14T02:31:08;100779.00;;;7.11;28.22
53659;BME280;41524;35.624;139.698;2023-02-14T02:35:27;100751.00;;;7.91;28.73
53659;BME280;41524;35.624;139.698;2023-02-14T02:40:27;100743.00;;;8.62;27.89
53659;BME280;41524;35.624;139.698;2023-02-14T02:45:17;100734.00;;;8.51;27.05
53659;BME280;41524;35.624;139.698;2023-02-14T02:50:21;100729.00;;;8.06;27.43
53659;BME280;41524;35.624;139.698;2023-02-14T02:55:18;100723.00;;;5.79;29.64
53659;BME280;41524;35.624;139.698;2023-02-14T03:00:21;100716.00;;;9.20;26.37
53659;BME280;41524;35.624;139.698;2023-02-14T03:05:11;100703.00;;;8.93;26.26
53659;BME280;41524;35.624;139.698;2023-02-14T03:10:15;100702.00;;;7.13;27.75
53659;BME280;41524;35.624;139.698;2023-02-14T03:15:15;100694.00;;;8.25;26.75
53659;BME280;41524;35.624;139.698;2023-02-14T03:20:15;100684.00;;;7.80;27.14
53659;BME280;41524;35.624;139.698;2023-02-14T03:25:25;100684.00;;;6.87;27.35
53659;BME280;41524;35.624;139.698;2023-02-14T03:30:19;100671.00;;;8.80;26.39
53659;BME280;41524;35.624;139.698;2023-02-14T03:35:17;100659.00;;;8.40;26.13
53659;BME280;41524;35.624;139.698;2023-02-14T03:40:21;100667.00;;;6.81;27.31
53659;BME280;41524;35.624;139.698;2023-02-14T03:45:15;100664.00;;;7.67;26.21
53659;BME280;41524;35.624;139.698;2023-02-14T03:50:15;100650.00;;;7.42;26.45
53659;BME280;41524;35.624;139.698;2023-02-14T03:55:13;100649.00;;;8.12;26.10
53659;BME280;41524;35.624;139.698;2023-02-14T04:00:11;100638.00;;;7.40;27.17
53659;BME280;41524;35.624;139.698;2023-02-14T04:05:15;100641.00;;;6.91;25.81
53659;BME280;41524;35.624;139.698;2023-02-14T04:10:17;100643.00;;;7.67;25.50
53659;BME280;41524;35.624;139.698;2023-02-14T04:15:12;100637.00;;;8.12;26.31
53659;BME280;41524;35.624;139.698;2023-02-14T04:20:11;100642.00;;;7.75;25.63
53659;BME280;41524;35.624;139.698;2023-02-14T04:25:11;100631.00;;;7.08;26.32
53659;BME280;41524;35.624;139.698;2023-02-14T04:30:12;100620.00;;;8.33;25.12
53659;BME280;41524;35.624;139.698;2023-02-14T04:35:11;100611.00;;;8.88;24.86
53659;BME280;41524;35.624;139.698;2023-02-14T04:40:13;100611.00;;;7.98;25.24
53659;BME280;41524;35.624;139.698;2023-02-14T04:45:11;100617.00;;;7.76;24.73
53659;BME280;41524;35.624;139.698;2023-02-14T04:50:15;100619.00;;;7.17;24.33
53659;BME280;41524;35.624;139.698;2023-02-14T04:55:13;100614.00;;;8.66;23.71
53659;BME280;41524;35.624;139.698;2023-02-14T05:00:11;100630.00;;;8.14;23.70
53659;BME280;41524;35.624;139.698;2023-02-14T05:05:11;100631.00;;;6.67;24.87
53659;BME280;41524;35.624;139.698;2023-02-14T05:10:11;100625.00;;;7.61;24.58
53659;BME280;41524;35.624;139.698;2023-02-14T05:15:11;100632.00;;;8.23;24.05
53659;BME280;41524;35.624;139.698;2023-02-14T05:20:12;100616.00;;;8.33;24.27
53659;BME280;41524;35.624;139.698;2023-02-14T05:25:11;100626.00;;;7.69;23.62
53659;BME280;41524;35.624;139.698;2023-02-14T05:30:11;100629.00;;;7.09;24.20
53659;BME280;41524;35.624;139.698;2023-02-14T05:35:11;100637.00;;;7.65;23.97
53659;BME280;41524;35.624;139.698;2023-02-14T05:40:11;100635.00;;;7.88;24.13
53659;BME280;41524;35.624;139.698;2023-02-14T05:45:12;100639.00;;;7.60;23.95
53659;BME280;41524;35.624;139.698;2023-02-14T05:50:20;100648.00;;;7.10;24.41
53659;BME280;41524;35.624;139.698;2023-02-14T05:55:15;100656.00;;;6.65;24.85
53659;BME280;41524;35.624;139.698;2023-02-14T06:00:16;100657.00;;;7.81;24.32
53659;BME280;41524;35.624;139.698;2023-02-14T06:05:12;100660.00;;;7.02;24.98
53659;BME280;41524;35.624;139.698;2023-02-14T06:10:11;100671.00;;;7.58;24.94
53659;BME280;41524;35.624;139.698;2023-02-14T06:15:11;100685.00;;;5.96;25.12
53659;BME280;41524;35.624;139.698;2023-02-14T06:20:16;100694.00;;;7.17;24.29
53659;BME280;41524;35.624;139.698;2023-02-14T06:25:10;100702.00;;;6.29;24.88
53659;BME280;41524;35.624;139.698;2023-02-14T06:30:12;100707.00;;;6.61;24.58
53659;BME280;41524;35.624;139.698;2023-02-14T06:35:10;100720.00;;;6.00;24.93
53659;BME280;41524;35.624;139.698;2023-02-14T06:40:16;100735.00;;;7.60;23.18
53659;BME280;41524;35.624;139.698;2023-02-14T06:45:12;100750.00;;;5.26;23.68
53659;BME280;41524;35.624;139.698;2023-02-14T06:55:20;100741.00;;;5.60;24.16
53659;BME280;41524;35.624;139.698;2023-02-14T07:00:11;100745.00;;;5.15;23.45
53659;BME280;41524;35.624;139.698;2023-02-14T07:05:11;100755.00;;;4.98;24.14
53659;BME280;41524;35.624;139.698;2023-02-14T07:10:12;100779.00;;;4.69;24.01
53659;BME280;41524;35.624;139.698;2023-02-14T07:15:13;100771.00;;;5.13;24.42
53659;BME280;41524;35.624;139.698;2023-02-14T07:20:12;100799.00;;;4.28;25.20
53659;BME280;41524;35.624;139.698;2023-02-14T07:25:12;100801.00;;;4.67;24.67
53659;BME280;41524;35.624;139.698;2023-02-14T07:30:12;100802.00;;;3.78;24.86
53659;BME280;41524;35.624;139.698;2023-02-14T07:35:15;100813.00;;;4.59;24.56
53659;BME280;41524;35.624;139.698;2023-02-14T07:40:16;100821.00;;;4.24;24.95
53659;BME280;41524;35.624;139.698;2023-02-14T07:45:11;100820.00;;;5.41;24.47
53659;BME280;41524;35.624;139.698;2023-02-14T07:50:11;100836.00;;;4.86;25.26
53659;BME280;41524;35.624;139.698;2023-02-14T07:55:15;100828.00;;;4.14;25.35
53659;BME280;41524;35.624;139.698;2023-02-14T08:00:12;100845.00;;;4.33;24.82
53659;BME280;41524;35.624;139.698;2023-02-14T08:05:10;100853.00;;;4.30;24.77
53659;BME280;41524;35.624;139.698;2023-02-14T08:10:11;100855.00;;;5.35;23.90
53659;BME280;41524;35.624;139.698;2023-02-14T08:15:11;100861.00;;;4.48;24.55
53659;BME280;41524;35.624;139.698;2023-02-14T08:20:12;100859.00;;;3.90;24.84
53659;BME280;41524;35.624;139.698;2023-02-14T08:25:15;100884.00;;;4.83;24.35
53659;BME280;41524;35.624;139.698;2023-02-14T08:30:12;100876.00;;;3.32;25.15
53659;BME280;41524;35.624;139.698;2023-02-14T08:35:11;100882.00;;;3.22;25.35
53659;BME280;41524;35.624;139.698;2023-02-14T08:40:15;100890.00;;;4.35;24.87
53659;BME280;41524;35.624;139.698;2023-02-14T08:45:15;100890.00;;;3.07;25.93
53659;BME280;41524;35.624;139.698;2023-02-14T08:50:13;100909.00;;;3.78;24.62
53659;BME280;41524;35.624;139.698;2023-02-14T08:55:12;100907.00;;;4.12;24.66
53659;BME280;41524;35.624;139.698;2023-02-14T09:00:11;100907.00;;;3.99;26.08
53659;BME280;41524;35.624;139.698;2023-02-14T09:05:16;100909.00;;;3.44;24.81
53659;BME280;41524;35.624;139.698;2023-02-14T09:10:16;100920.00;;;3.81;25.78
53659;BME280;41524;35.624;139.698;2023-02-14T09:15:12;100930.00;;;3.24;25.49
53659;BME280;41524;35.624;139.698;2023-02-14T09:20:17;100942.00;;;2.88;26.30
53659;BME280;41524;35.624;139.698;2023-02-14T09:25:12;100952.00;;;2.64;28.81
53659;BME280;41524;35.624;139.698;2023-02-14T09:30:16;100955.00;;;2.53;28.47
53659;BME280;41524;35.624;139.698;2023-02-14T09:35:10;100942.00;;;3.01;28.01
53659;BME280;41524;35.624;139.698;2023-02-14T09:40:17;100965.00;;;3.32;27.34
53659;BME280;41524;35.624;139.698;2023-02-14T09:45:13;100944.00;;;3.51;28.27
53659;BME280;41524;35.624;139.698;2023-02-14T09:50:21;100954.00;;;2.68;27.70
53659;BME280;41524;35.624;139.698;2023-02-14T09:55:15;100954.00;;;2.74;28.32
53659;BME280;41524;35.624;139.698;2023-02-14T10:00:21;100966.00;;;3.51;28.12
53659;BME280;41524;35.624;139.698;2023-02-14T10:05:19;100958.00;;;2.50;28.78
53659;BME280;41524;35.624;139.698;2023-02-14T10:10:21;100983.00;;;2.49;29.82
53659;BME280;41524;35.624;139.698;2023-02-14T10:15:20;100981.00;;;2.48;29.60
53659;BME280;41524;35.624;139.698;2023-02-14T10:20:21;100978.00;;;3.17;29.08
53659;BME280;41524;35.624;139.698;2023-02-14T10:25:20;100982.00;;;2.76;28.89
53659;BME280;41524;35.624;139.698;2023-02-14T10:30:13;100983.00;;;2.67;30.64
53659;BME280;41524;35.624;139.698;2023-02-14T10:35:20;100991.00;;;2.82;28.87
53659;BME280;41524;35.624;139.698;2023-02-14T10:40:30;100991.00;;;2.94;28.94
53659;BME280;41524;35.624;139.698;2023-02-14T10:45:18;101006.00;;;2.73;30.03
53659;BME280;41524;35.624;139.698;2023-02-14T10:50:17;101003.00;;;2.73;29.64
53659;BME280;41524;35.624;139.698;2023-02-14T10:55:21;100998.00;;;2.88;29.03
53659;BME280;41524;35.624;139.698;2023-02-14T11:00:22;101001.00;;;2.86;29.08
53659;BME280;41524;35.624;139.698;2023-02-14T11:05:26;101013.00;;;3.73;28.81
53659;BME280;41524;35.624;139.698;2023-02-14T11:10:13;101024.00;;;3.62;28.80
53659;BME280;41524;35.624;139.698;2023-02-14T11:15:26;101034.00;;;3.79;29.41
53659;BME280;41524;35.624;139.698;2023-02-14T11:20:24;101037.00;;;3.01;29.58
53659;BME280;41524;35.624;139.698;2023-02-14T11:25:21;101043.00;;;2.64;30.19
53659;BME280;41524;35.624;139.698;2023-02-14T11:30:19;101043.00;;;2.91;30.40
53659;BME280;41524;35.624;139.698;2023-02-14T11:35:25;101053.00;;;3.33;29.34
53659;BME280;41524;35.624;139.698;2023-02-14T11:40:26;101055.00;;;2.46;29.61
53659;BME280;41524;35.624;139.698;2023-02-14T11:45:33;101059.00;;;3.36;28.65
53659;BME280;41524;35.624;139.698;2023-02-14T11:55:23;101070.00;;;3.28;27.94
53659;BME280;41524;35.624;139.698;2023-02-14T12:00:21;101069.00;;;2.67;28.15
53659;BME280;41524;35.624;139.698;2023-02-14T12:05:18;101062.00;;;2.60;27.98
53659;BME280;41524;35.624;139.698;2023-02-14T12:10:22;101074.00;;;1.70;28.66
53659;BME280;41524;35.624;139.698;2023-02-14T12:15:24;101071.00;;;3.01;27.66
53659;BME280;41524;35.624;139.698;2023-02-14T12:20:14;101066.00;;;2.22;27.68
53659;BME280;41524;35.624;139.698;2023-02-14T12:25:19;101064.00;;;3.17;27.13
53659;BME280;41524;35.624;139.698;2023-02-14T12:30:15;101062.00;;;2.52;27.63
53659;BME280;41524;35.624;139.698;2023-02-14T12:35:16;101071.00;;;3.20;26.62
53659;BME280;41524;35.624;139.698;2023-02-14T12:40:24;101085.00;;;2.00;28.47
53659;BME280;41524;35.624;139.698;2023-02-14T12:45:19;101086.00;;;3.31;26.41
53659;BME280;41524;35.624;139.698;2023-02-14T12:50:39;101079.00;;;3.04;26.77
53659;BME280;41524;35.624;139.698;2023-02-14T12:55:32;101096.00;;;2.38;26.82
53659;BME280;41524;35.624;139.698;2023-02-14T13:00:27;101084.00;;;2.50;26.59
53659;BME280;41524;35.624;139.698;2023-02-14T13:05:18;101083.00;;;2.16;26.78
53659;BME280;41524;35.624;139.698;2023-02-14T13:10:18;101075.00;;;2.31;27.31
53659;BME280;41524;35.624;139.698;2023-02-14T13:15:24;101076.00;;;1.80;27.96
53659;BME280;41524;35.624;139.698;2023-02-14T13:20:37;101082.00;;;1.68;28.46
53659;BME280;41524;35.624;139.698;2023-02-14T13:25:22;101091.00;;;2.53;28.59
53659;BME280;41524;35.624;139.698;2023-02-14T13:30:18;101090.00;;;2.46;28.97
53659;BME280;41524;35.624;139.698;2023-02-14T13:35:16;101096.00;;;1.74;29.03
53659;BME280;41524;35.624;139.698;2023-02-14T13:45:53;101084.00;;;2.28;29.20
53659;BME280;41524;35.624;139.698;2023-02-14T13:50:21;101088.00;;;1.49;29.67
53659;BME280;41524;35.624;139.698;2023-02-14T13:55:19;101085.00;;;1.92;29.66
53659;BME280;41524;35.624;139.698;2023-02-14T14:00:36;101084.00;;;1.50;30.69
53659;BME280;41524;35.624;139.698;2023-02-14T14:06:15;101085.00;;;1.55;31.22
53659;BME280;41524;35.624;139.698;2023-02-14T14:10:42;101089.00;;;1.76;30.71
53659;BME280;41524;35.624;139.698;2023-02-14T14:15:20;101102.00;;;1.87;30.53
53659;BME280;41524;35.624;139.698;2023-02-14T14:25:30;101108.00;;;1.91;30.77
53659;BME280;41524;35.624;139.698;2023-02-14T14:30:19;101123.00;;;2.13;30.82
53659;BME280;41524;35.624;139.698;2023-02-14T14:35:18;101120.00;;;0.75;32.44
53659;BME280;41524;35.624;139.698;2023-02-14T14:40:22;101113.00;;;1.95;31.43
53659;BME280;41524;35.624;139.698;2023-02-14T14:45:24;101119.00;;;1.44;31.64
53659;BME280;41524;35.624;139.698;2023-02-14T14:50:24;101123.00;;;0.57;32.23
53659;BME280;41524;35.624;139.698;2023-02-14T14:55:19;101123.00;;;1.48;31.56
53659;BME280;41524;35.624;139.698;2023-02-14T15:00:21;101123.00;;;1.51;31.58
53659;BME280;41524;35.624;139.698;2023-02-14T15:05:28;101135.00;;;0.91;32.19
53659;BME280;41524;35.624;139.698;2023-02-14T15:10:24;101147.00;;;0.52;32.48
53659;BME280;41524;35.624;139.698;2023-02-14T15:15:17;101149.00;;;1.25;32.16
53659;BME280;41524;35.624;139.698;2023-02-14T15:20:16;101163.00;;;0.78;33.80
53659;BME280;41524;35.624;139.698;2023-02-14T15:25:12;101172.00;;;0.85;33.96
53659;BME280;41524;35.624;139.698;2023-02-14T15:30:22;101168.00;;;0.42;34.38
53659;BME280;41524;35.624;139.698;2023-02-14T15:35:17;101166.00;;;0.94;34.38
53659;BME280;41524;35.624;139.698;2023-02-14T15:40:17;101161.00;;;0.87;34.26
53659;BME280;41524;35.624;139.698;2023-02-14T15:45:21;101156.00;;;1.09;34.59
53659;BME280;41524;35.624;139.698;2023-02-14T15:50:22;101174.00;;;0.52;34.50
53659;BME280;41524;35.624;139.698;2023-02-14T15:55:14;101184.00;;;0.05;34.33
53659;BME280;41524;35.624;139.698;2023-02-14T16:00:17;101186.00;;;0.91;33.52
53659;BME280;41524;35.624;139.698;2023-02-14T16:05:17;101187.00;;;0.28;33.32
53659;BME280;41524;35.624;139.698;2023-02-14T16:10:22;101194.00;;;0.36;32.99
53659;BME280;41524;35.624;139.698;2023-02-14T16:15:19;101199.00;;;1.51;31.58
53659;BME280;41524;35.624;139.698;2023-02-14T16:20:45;101198.00;;;1.60;31.22
53659;BME280;41524;35.624;139.698;2023-02-14T16:25:16;101208.00;;;0.97;31.18
53659;BME280;41524;35.624;139.698;2023-02-14T16:30:17;101209.00;;;0.68;31.55
53659;BME280;41524;35.624;139.698;2023-02-14T16:35:17;101209.00;;;0.30;32.13
53659;BME280;41524;35.624;139.698;2023-02-14T16:40:14;101220.00;;;0.76;30.89
53659;BME280;41524;35.624;139.698;2023-02-14T16:45:16;101220.00;;;1.10;30.27
53659;BME280;41524;35.624;139.698;2023-02-14T16:50:10;101225.00;;;1.13;29.94
53659;BME280;41524;35.624;139.698;2023-02-14T16:55:15;101232.00;;;0.43;30.54
53659;BME280;41524;35.624;139.698;2023-02-14T17:00:19;101236.00;;;1.54;29.57
53659;BME280;41524;35.624;139.698;2023-02-14T17:05:18;101230.00;;;0.47;29.71
53659;BME280;41524;35.624;139.698;2023-02-14T17:10:17;101241.00;;;0.85;29.15
53659;BME280;41524;35.624;139.698;2023-02-14T17:15:14;101239.00;;;0.24;29.47
53659;BME280;41524;35.624;139.698;2023-02-14T17:20:12;101231.00;;;0.12;29.88
53659;BME280;41524;35.624;139.698;2023-02-14T17:25:12;101233.00;;;0.43;29.20
53659;BME280;41524;35.624;139.698;2023-02-14T17:30:13;101243.00;;;1.07;28.66
53659;BME280;41524;35.624;139.698;2023-02-14T17:35:11;101236.00;;;0.99;28.27
53659;BME280;41524;35.624;139.698;2023-02-14T17:40:12;101238.00;;;0.65;28.62
53659;BME280;41524;35.624;139.698;2023-02-14T17:45:10;101235.00;;;0.44;28.50
53659;BME280;41524;35.624;139.698;2023-02-14T17:50:11;101233.00;;;0.47;29.54
53659;BME280;41524;35.624;139.698;2023-02-14T17:55:11;101240.00;;;0.42;28.96
53659;BME280;41524;35.624;139.698;2023-02-14T18:00:18;101265.00;;;1.22;28.34
53659;BME280;41524;35.624;139.698;2023-02-14T18:05:12;101270.00;;;0.10;28.91
53659;BME280;41524;35.624;139.698;2023-02-14T18:10:12;101281.00;;;0.66;29.06
53659;BME280;41524;35.624;139.698;2023-02-14T18:15:14;101273.00;;;0.59;28.87
53659;BME280;41524;35.624;139.698;2023-02-14T18:20:11;101278.00;;;-0.15;29.34
53659;BME280;41524;35.624;139.698;2023-02-14T18:25:10;101277.00;;;0.29;29.44
53659;BME280;41524;35.624;139.698;2023-02-14T18:30:12;101279.00;;;0.33;29.45
53659;BME280;41524;35.624;139.698;2023-02-14T18:35:10;101281.00;;;0.57;29.37
53659;BME280;41524;35.624;139.698;2023-02-14T18:40:11;101287.00;;;0.29;29.27
53659;BME280;41524;35.624;139.698;2023-02-14T18:45:10;101285.00;;;0.20;29.99
53659;BME280;41524;35.624;139.698;2023-02-14T18:50:11;101283.00;;;0.19;29.77
53659;BME280;41524;35.624;139.698;2023-02-14T18:55:11;101311.00;;;0.79;29.71
53659;BME280;41524;35.624;139.698;2023-02-14T19:00:11;101319.00;;;0.18;30.15
53659;BME280;41524;35.624;139.698;2023-02-14T19:05:11;101315.00;;;0.92;29.75
53659;BME280;41524;35.624;139.698;2023-02-14T19:10:15;101316.00;;;-0.14;30.55
53659;BME280;41524;35.624;139.698;2023-02-14T19:15:10;101321.00;;;-0.21;30.55
53659;BME280;41524;35.624;139.698;2023-02-14T19:20:13;101323.00;;;0.35;29.65
53659;BME280;41524;35.624;139.698;2023-02-14T19:25:11;101317.00;;;1.02;29.14
53659;BME280;41524;35.624;139.698;2023-02-14T19:30:11;101317.00;;;0.16;29.78
53659;BME280;41524;35.624;139.698;2023-02-14T19:35:11;101329.00;;;0.01;29.42
53659;BME280;41524;35.624;139.698;2023-02-14T19:40:10;101343.00;;;0.57;29.04
53659;BME280;41524;35.624;139.698;2023-02-14T19:45:10;101348.00;;;0.43;29.02
53659;BME280;41524;35.624;139.698;2023-02-14T19:50:11;101352.00;;;0.47;28.68
53659;BME280;41524;35.624;139.698;2023-02-14T19:55:20;101352.00;;;0.26;28.94
53659;BME280;41524;35.624;139.698;2023-02-14T20:00:13;101356.00;;;0.73;28.65
53659;BME280;41524;35.624;139.698;2023-02-14T20:05:16;101369.00;;;-0.57;29.36
53659;BME280;41524;35.624;139.698;2023-02-14T20:10:11;101389.00;;;-0.98;29.22
53659;BME280;41524;35.624;139.698;2023-02-14T20:15:13;101387.00;;;-0.68;29.48
53659;BME280;41524;35.624;139.698;2023-02-14T20:20:22;101389.00;;;0.17;28.35
53659;BME280;41524;35.624;139.698;2023-02-14T20:25:11;101395.00;;;-0.03;28.65
53659;BME280;41524;35.624;139.698;2023-02-14T20:30:12;101408.00;;;0.53;27.88
53659;BME280;41524;35.624;139.698;2023-02-14T20:35:10;101424.00;;;-0.46;28.37
53659;BME280;41524;35.624;139.698;2023-02-14T20:40:15;101435.00;;;-0.35;28.77
53659;BME280;41524;35.624;139.698;2023-02-14T20:45:15;101434.00;;;0.01;27.67
53659;BME280;41524;35.624;139.698;2023-02-14T20:50:12;101419.00;;;-0.08;27.64
53659;BME280;41524;35.624;139.698;2023-02-14T20:55:12;101419.00;;;-0.14;27.58
53659;BME280;41524;35.624;139.698;2023-02-14T21:00:11;101425.00;;;0.02;27.35
53659;BME280;41524;35.624;139.698;2023-02-14T21:05:11;101440.00;;;0.58;27.08
53659;BME280;41524;35.624;139.698;2023-02-14T21:10:16;101450.00;;;-0.11;27.69
53659;BME280;41524;35.624;139.698;2023-02-14T21:15:11;101467.00;;;-0.16;27.31
53659;BME280;41524;35.624;139.698;2023-02-14T21:20:14;101484.00;;;0.56;26.71
53659;BME280;41524;35.624;139.698;2023-02-14T21:25:13;101491.00;;;-0.16;26.98
53659;BME280;41524;35.624;139.698;2023-02-14T21:30:12;101492.00;;;-0.48;26.92
53659;BME280;41524;35.624;139.698;2023-02-14T21:35:13;101501.00;;;-0.47;27.08
53659;BME280;41524;35.624;139.698;2023-02-14T21:40:11;101522.00;;;-0.15;27.19
53659;BME280;41524;35.624;139.698;2023-02-14T21:45:13;101545.00;;;0.68;26.63
53659;BME280;41524;35.624;139.698;2023-02-14T21:50:11;101543.00;;;-0.07;26.50
53659;BME280;41524;35.624;139.698;2023-02-14T21:55:11;101557.00;;;0.40;29.99
53659;BME280;41524;35.624;139.698;2023-02-14T22:00:12;101568.00;;;-0.06;26.55
53659;BME280;41524;35.624;139.698;2023-02-14T22:05:11;101578.00;;;0.58;26.21
53659;BME280;41524;35.624;139.698;2023-02-14T22:10:22;101581.00;;;0.92;26.73
53659;BME280;41524;35.624;139.698;2023-02-14T22:15:11;101603.00;;;0.63;26.35
53659;BME280;41524;35.624;139.698;2023-02-14T22:20:11;101608.00;;;0.06;27.24
53659;BME280;41524;35.624;139.698;2023-02-14T22:25:20;101612.00;;;0.18;30.39
53659;BME280;41524;35.624;139.698;2023-02-14T22:30:12;101617.00;;;-0.58;30.69
53659;BME280;41524;35.624;139.698;2023-02-14T22:35:11;101621.00;;;-0.07;31.24
53659;BME280;41524;35.624;139.698;2023-02-14T22:40:25;101629.00;;;0.07;31.08
53659;BME280;41524;35.624;139.698;2023-02-14T22:45:16;101633.00;;;0.35;28.72
53659;BME280;41524;35.624;139.698;2023-02-14T22:50:12;101634.00;;;0.17;28.95
53659;BME280;41524;35.624;139.698;2023-02-14T22:55:15;101642.00;;;-0.21;30.14
53659;BME280;41524;35.624;139.698;2023-02-14T23:00:11;101651.00;;;-0.71;29.72
53659;BME280;41524;35.624;139.698;2023-02-14T23:05:10;101654.00;;;0.33;32.12
53659;BME280;41524;35.624;139.698;2023-02-14T23:10:11;101663.00;;;0.05;29.94
53659;BME280;41524;35.624;139.698;2023-02-14T23:15:11;101675.00;;;1.39;31.84
53659;BME280;41524;35.624;139.698;2023-02-14T23:20:16;101676.00;;;1.26;30.50
53659;BME280;41524;35.624;139.698;2023-02-14T23:25:12;101691.00;;;0.40;30.97
53659;BME280;41524;35.624;139.698;2023-02-14T23:30:22;101699.00;;;1.27;28.32
53659;BME280;41524;35.624;139.698;2023-02-14T23:35:14;101708.00;;;0.89;30.64
53659;BME280;41524;35.624;139.698;2023-02-14T23:40:11;101721.00;;;0.36;27.98
53659;BME280;41524;35.624;139.698;2023-02-14T23:45:17;101723.00;;;1.17;31.40
53659;BME280;41524;35.624;139.698;2023-02-14T23:50:16;101735.00;;;1.07;31.28
53659;BME280;41524;35.624;139.698;2023-02-14T23:55:15;101747.00;;;1.26;29.01
